createdAt,value
2018-09-14T00:00:43.680Z,18.96
2018-09-14T00:02:19.133Z,18.95
2018-09-14T00:03:54.652Z,19.07
2018-09-14T00:05:30.119Z,19.19
2018-09-14T00:07:06.175Z,19.18
2018-09-14T00:08:41.698Z,19.06
2018-09-14T00:10:17.249Z,19.23
2018-09-14T00:11:52.799Z,19.05
2018-09-14T00:13:28.337Z,18.99
2018-09-14T00:15:04.124Z,18.79
2018-09-14T00:16:39.632Z,18.87
2018-09-14T00:18:15.174Z,18.88
2018-09-14T00:19:50.817Z,18.79
2018-09-14T00:21:26.328Z,18.84
2018-09-14T00:23:01.884Z,18.97
2018-09-14T00:24:37.441Z,18.93
2018-09-14T00:26:12.961Z,19.08
2018-09-14T00:27:48.516Z,18.94
2018-09-14T00:29:24.084Z,19.01
2018-09-14T00:30:59.597Z,18.83
2018-09-14T00:32:35.264Z,18.91
2018-09-14T00:34:10.804Z,18.84
2018-09-14T00:35:46.402Z,18.94
2018-09-14T00:37:21.924Z,18.92
2018-09-14T00:38:57.409Z,18.86
2018-09-14T00:40:32.978Z,19.06
2018-09-14T00:42:08.468Z,19.05
2018-09-14T00:43:44.156Z,19.14
2018-09-14T00:45:19.755Z,19.20
2018-09-14T00:46:55.271Z,19.07
2018-09-14T00:48:30.806Z,18.98
2018-09-14T00:50:06.724Z,18.96
2018-09-14T00:51:42.365Z,19.03
2018-09-14T00:53:17.859Z,19.23
2018-09-14T00:54:54.240Z,19.23
2018-09-14T00:56:29.737Z,19.22
2018-09-14T00:58:05.262Z,19.11
2018-09-14T00:59:40.727Z,19.02
2018-09-14T01:01:16.216Z,19.05
2018-09-14T01:02:51.706Z,18.95
2018-09-14T01:04:27.242Z,19.13
2018-09-14T01:06:02.787Z,18.80
2018-09-14T01:07:38.305Z,19.04
2018-09-14T01:09:17.954Z,18.94
2018-09-14T01:10:53.475Z,19.10
2018-09-14T01:12:28.992Z,18.86
2018-09-14T01:14:04.499Z,18.90
2018-09-14T01:15:40.034Z,18.88
2018-09-14T01:17:15.664Z,18.77
2018-09-14T01:18:52.188Z,19.04
2018-09-14T01:20:27.752Z,19.08
2018-09-14T01:22:04.143Z,18.73
2018-09-14T01:23:39.657Z,18.81
2018-09-14T01:25:15.145Z,18.67
2018-09-14T01:26:50.785Z,18.64
2018-09-14T01:28:26.271Z,18.48
2018-09-14T01:30:01.820Z,18.52
2018-09-14T01:31:37.338Z,18.49
2018-09-14T01:33:12.890Z,18.34
2018-09-14T01:34:48.377Z,18.46
2018-09-14T01:36:23.874Z,18.58
2018-09-14T01:37:59.481Z,18.61
2018-09-14T01:39:35.304Z,18.63
2018-09-14T01:41:11.065Z,18.44
2018-09-14T01:42:46.814Z,18.48
2018-09-14T01:44:22.350Z,18.68
2018-09-14T01:45:57.874Z,18.31
2018-09-14T01:47:33.471Z,18.62
2018-09-14T01:49:08.974Z,18.76
2018-09-14T01:50:44.577Z,18.62
2018-09-14T01:52:20.121Z,18.67
2018-09-14T01:53:55.606Z,18.63
2018-09-14T01:55:31.138Z,18.57
2018-09-14T01:57:06.973Z,18.50
2018-09-14T01:58:42.484Z,18.61
2018-09-14T02:00:18.069Z,18.52
2018-09-14T02:01:53.596Z,18.50
2018-09-14T02:03:29.208Z,18.27
2018-09-14T02:05:05.198Z,18.39
2018-09-14T02:06:40.767Z,18.29
2018-09-14T02:08:16.278Z,18.34
2018-09-14T02:09:51.773Z,18.37
2018-09-14T02:11:27.299Z,18.34
2018-09-14T02:13:02.839Z,18.57
2018-09-14T02:14:38.380Z,18.60
2018-09-14T02:16:13.865Z,18.41
2018-09-14T02:17:49.470Z,18.33
2018-09-14T02:19:24.982Z,18.29
2018-09-14T02:21:00.566Z,18.47
2018-09-14T02:22:36.046Z,18.52
2018-09-14T02:24:11.559Z,18.66
2018-09-14T02:25:47.100Z,18.76
2018-09-14T02:27:22.677Z,18.48
2018-09-14T02:28:58.233Z,18.52
2018-09-14T02:30:33.821Z,18.49
2018-09-14T02:32:09.384Z,18.36
2018-09-14T02:33:44.930Z,18.33
2018-09-14T02:35:20.452Z,18.29
2018-09-14T02:36:55.956Z,18.44
2018-09-14T02:38:31.594Z,18.40
2018-09-14T02:40:07.120Z,18.39
2018-09-14T02:41:42.663Z,18.30
2018-09-14T02:43:18.166Z,18.29
2018-09-14T02:44:53.732Z,18.61
2018-09-14T02:46:29.315Z,18.49
2018-09-14T02:48:04.787Z,18.57
2018-09-14T02:49:40.321Z,18.34
2018-09-14T02:51:15.817Z,18.54
2018-09-14T02:52:51.347Z,18.51
2018-09-14T02:54:27.114Z,18.53
2018-09-14T02:56:02.661Z,18.58
2018-09-14T02:57:38.254Z,18.79
2018-09-14T02:59:13.781Z,18.85
2018-09-14T03:00:49.672Z,18.76
2018-09-14T03:02:25.227Z,18.53
2018-09-14T03:04:00.755Z,18.60
2018-09-14T03:05:36.244Z,18.40
2018-09-14T03:07:11.816Z,18.60
2018-09-14T03:08:47.312Z,18.77
2018-09-14T03:10:22.882Z,18.85
2018-09-14T03:11:58.381Z,18.90
2018-09-14T03:13:33.963Z,19.05
2018-09-14T03:15:09.660Z,19.06
2018-09-14T03:16:45.200Z,18.66
2018-09-14T03:18:20.719Z,18.51
2018-09-14T03:21:37.948Z,18.40
2018-09-14T03:23:13.473Z,18.35
2018-09-14T03:24:49.007Z,18.07
2018-09-14T03:26:24.917Z,17.97
2018-09-14T03:28:00.424Z,17.99
2018-09-14T03:29:35.972Z,18.03
2018-09-14T03:31:11.538Z,18.08
2018-09-14T03:32:47.059Z,18.20
2018-09-14T03:34:22.621Z,18.11
2018-09-14T03:35:58.101Z,18.09
2018-09-14T03:37:33.632Z,18.09
2018-09-14T03:39:10.254Z,18.28
2018-09-14T03:40:45.910Z,18.28
2018-09-14T03:42:21.936Z,18.46
2018-09-14T03:43:57.461Z,18.45
2018-09-14T03:45:33.003Z,18.36
2018-09-14T03:47:08.724Z,18.39
2018-09-14T03:48:44.265Z,18.28
2018-09-14T03:50:19.790Z,17.96
2018-09-14T03:51:55.439Z,18.02
2018-09-14T03:53:31.146Z,18.07
2018-09-14T03:55:06.747Z,18.04
2018-09-14T03:56:42.286Z,17.87
2018-09-14T03:58:17.849Z,18.08
2018-09-14T03:59:53.376Z,18.05
2018-09-14T04:01:28.886Z,18.07
2018-09-14T04:03:04.464Z,18.15
2018-09-14T04:04:40.174Z,18.20
2018-09-14T04:06:15.838Z,18.19
2018-09-14T04:07:51.486Z,18.02
2018-09-14T04:09:26.929Z,18.30
2018-09-14T04:11:02.432Z,18.63
2018-09-14T04:12:37.943Z,18.32
2018-09-14T04:14:13.876Z,18.28
2018-09-14T04:15:49.376Z,18.21
2018-09-14T04:17:24.902Z,18.29
2018-09-14T04:19:04.210Z,18.32
2018-09-14T04:20:39.774Z,18.16
2018-09-14T04:22:15.349Z,18.03
2018-09-14T04:23:50.878Z,18.19
2018-09-14T04:25:26.477Z,18.28
2018-09-14T04:27:03.107Z,18.34
2018-09-14T04:28:38.683Z,18.24
2018-09-14T04:30:14.252Z,18.32
2018-09-14T04:31:49.785Z,18.26
2018-09-14T04:33:25.334Z,18.09
2018-09-14T04:35:00.924Z,18.09
2018-09-14T04:36:36.430Z,18.15
2018-09-14T04:38:12.029Z,18.32
2018-09-14T04:39:47.532Z,18.43
2018-09-14T04:41:23.187Z,18.61
2018-09-14T04:42:58.689Z,18.25
2018-09-14T04:44:34.241Z,18.25
2018-09-14T04:46:09.747Z,18.45
2018-09-14T04:47:45.391Z,18.54
2018-09-14T04:49:21.025Z,18.75
2018-09-14T04:50:57.656Z,18.72
2018-09-14T04:52:33.291Z,18.37
2018-09-14T04:54:08.952Z,18.43
2018-09-14T04:55:45.542Z,18.34
2018-09-14T04:57:21.296Z,18.42
2018-09-14T04:58:57.033Z,18.51
2018-09-14T05:00:32.645Z,18.60
2018-09-14T05:02:08.339Z,18.24
2018-09-14T05:03:43.943Z,18.29
2018-09-14T05:05:19.520Z,18.44
2018-09-14T05:06:55.097Z,18.48
2018-09-14T05:08:32.157Z,18.79
2018-09-14T05:10:09.635Z,18.79
2018-09-14T05:11:45.197Z,18.68
2018-09-14T05:13:21.359Z,18.71
2018-09-14T05:14:56.946Z,19.01
2018-09-14T05:16:32.749Z,18.91
2018-09-14T05:18:08.754Z,18.78
2018-09-14T05:19:44.289Z,18.55
2018-09-14T05:21:20.904Z,18.81
2018-09-14T05:23:00.483Z,18.92
2018-09-14T05:24:36.068Z,18.76
2018-09-14T05:26:11.555Z,18.53
2018-09-14T05:27:48.567Z,18.39
2018-09-14T05:29:24.608Z,18.52
2018-09-14T05:31:00.901Z,18.54
2018-09-14T05:32:36.447Z,18.72
2018-09-14T05:34:11.963Z,18.53
2018-09-14T05:35:47.476Z,18.65
2018-09-14T05:37:23.022Z,18.65
2018-09-14T05:38:58.630Z,18.65
2018-09-14T05:40:34.143Z,18.55
2018-09-14T05:42:09.675Z,18.48
2018-09-14T05:43:45.196Z,18.51
2018-09-14T05:45:20.762Z,18.40
2018-09-14T05:46:56.287Z,18.48
2018-09-14T05:48:31.814Z,18.20
2018-09-14T05:50:07.349Z,18.18
2018-09-14T05:51:42.891Z,18.18
2018-09-14T05:53:18.768Z,18.35
2018-09-14T05:54:54.348Z,18.43
2018-09-14T05:56:29.952Z,18.33
2018-09-14T05:58:05.924Z,18.20
2018-09-14T05:59:41.462Z,18.32
2018-09-14T06:01:16.967Z,18.36
2018-09-14T06:02:52.535Z,18.30
2018-09-14T06:04:28.125Z,18.50
2018-09-14T06:06:03.711Z,18.55
2018-09-14T06:07:39.288Z,18.66
2018-09-14T06:09:14.867Z,18.68
2018-09-14T06:10:50.392Z,18.70
2018-09-14T06:12:25.922Z,18.41
2018-09-14T06:14:01.548Z,18.43
2018-09-14T06:15:37.092Z,18.68
2018-09-14T06:17:12.716Z,18.79
2018-09-14T06:18:48.241Z,18.69
2018-09-14T06:20:23.766Z,18.66
2018-09-14T06:21:59.379Z,18.77
2018-09-14T06:23:34.916Z,18.63
2018-09-14T06:25:10.471Z,18.55
2018-09-14T06:26:46.002Z,18.71
2018-09-14T06:28:21.595Z,18.69
2018-09-14T06:29:57.109Z,18.87
2018-09-14T06:31:32.642Z,18.98
2018-09-14T06:33:08.172Z,19.03
2018-09-14T06:34:43.710Z,19.05
2018-09-14T06:36:19.344Z,19.32
2018-09-14T06:37:54.859Z,19.54
2018-09-14T06:39:30.379Z,19.69
2018-09-14T06:41:05.915Z,19.75
2018-09-14T06:42:41.458Z,19.71
2018-09-14T06:44:16.932Z,19.75
2018-09-14T06:45:52.498Z,19.67
2018-09-14T06:47:28.017Z,19.78
2018-09-14T06:49:04.319Z,19.51
2018-09-14T06:50:39.891Z,19.81
2018-09-14T06:52:15.468Z,19.63
2018-09-14T06:53:51.034Z,19.55
2018-09-14T06:55:26.566Z,19.68
2018-09-14T06:57:02.183Z,19.73
2018-09-14T06:58:37.729Z,19.93
2018-09-14T07:00:13.388Z,20.06
2018-09-14T07:01:48.885Z,20.39
2018-09-14T07:03:24.421Z,20.54
2018-09-14T07:04:59.952Z,20.46
2018-09-14T07:06:35.605Z,20.23
2018-09-14T07:08:11.040Z,19.97
2018-09-14T07:09:46.565Z,20.37
2018-09-14T07:11:22.176Z,20.47
2018-09-14T07:12:57.724Z,20.62
2018-09-14T07:14:33.264Z,20.55
2018-09-14T07:16:08.840Z,20.30
2018-09-14T07:17:44.680Z,20.13
2018-09-14T07:19:20.255Z,20.06
2018-09-14T07:20:55.853Z,19.73
2018-09-14T07:22:31.401Z,19.77
2018-09-14T07:24:06.941Z,20.03
2018-09-14T07:25:42.448Z,20.04
2018-09-14T07:27:17.914Z,20.38
2018-09-14T07:28:53.530Z,20.61
2018-09-14T07:30:29.003Z,20.78
2018-09-14T07:32:04.585Z,20.86
2018-09-14T07:33:40.063Z,20.17
2018-09-14T07:35:15.625Z,20.12
2018-09-14T07:36:51.149Z,20.14
2018-09-14T07:38:26.799Z,19.85
2018-09-14T07:40:02.324Z,19.85
2018-09-14T07:41:37.819Z,19.80
2018-09-14T07:43:13.338Z,20.26
2018-09-14T07:44:48.870Z,20.11
2018-09-14T07:46:24.489Z,20.04
2018-09-14T07:48:00.085Z,20.05
2018-09-14T07:49:35.615Z,20.12
2018-09-14T07:51:11.145Z,19.93
2018-09-14T07:52:46.774Z,19.78
2018-09-14T07:54:22.291Z,19.85
2018-09-14T07:55:57.875Z,19.89
2018-09-14T07:57:33.403Z,19.90
2018-09-14T07:59:08.945Z,19.89
2018-09-14T08:00:44.453Z,20.06
2018-09-14T08:02:20.009Z,19.94
2018-09-14T08:03:55.527Z,19.89
2018-09-14T08:05:31.066Z,19.95
2018-09-14T08:07:06.637Z,20.30
2018-09-14T08:08:42.174Z,20.06
2018-09-14T08:10:17.723Z,19.74
2018-09-14T08:11:53.284Z,19.80
2018-09-14T08:13:28.768Z,20.04
2018-09-14T08:15:04.326Z,20.13
2018-09-14T08:16:39.877Z,19.95
2018-09-14T08:18:15.380Z,20.03
2018-09-14T08:19:50.951Z,19.93
2018-09-14T08:21:26.550Z,20.32
2018-09-14T08:23:02.232Z,20.28
2018-09-14T08:24:38.124Z,20.40
2018-09-14T08:26:13.797Z,20.41
2018-09-14T08:27:49.258Z,20.61
2018-09-14T08:29:24.824Z,20.59
2018-09-14T08:31:00.327Z,20.66
2018-09-14T08:32:35.839Z,20.66
2018-09-14T08:34:11.390Z,20.75
2018-09-14T08:35:46.917Z,20.87
2018-09-14T08:37:22.573Z,20.97
2018-09-14T08:38:58.150Z,21.01
2018-09-14T08:40:33.655Z,21.07
2018-09-14T08:42:09.191Z,21.11
2018-09-14T08:43:44.673Z,20.78
2018-09-14T08:45:20.227Z,21.00
2018-09-14T08:46:55.835Z,21.34
2018-09-14T08:48:31.388Z,21.28
2018-09-14T08:50:06.917Z,21.00
2018-09-14T08:51:42.415Z,21.23
2018-09-14T08:53:17.965Z,21.05
2018-09-14T08:54:53.476Z,20.88
2018-09-14T08:56:29.001Z,20.70
2018-09-14T08:58:04.696Z,20.66
2018-09-14T08:59:40.170Z,20.55
2018-09-14T09:01:15.682Z,20.57
2018-09-14T09:02:51.665Z,20.49
2018-09-14T09:04:27.189Z,20.30
2018-09-14T09:06:02.692Z,20.34
2018-09-14T09:07:38.229Z,20.28
2018-09-14T09:09:13.891Z,20.42
2018-09-14T09:10:49.363Z,20.47
2018-09-14T09:12:24.954Z,20.51
2018-09-14T09:14:00.608Z,20.58
2018-09-14T09:15:36.180Z,20.95
2018-09-14T09:17:11.797Z,20.94
2018-09-14T09:18:47.364Z,21.17
2018-09-14T09:20:22.865Z,20.88
2018-09-14T09:23:48.377Z,20.74
2018-09-14T09:25:23.932Z,20.93
2018-09-14T09:26:59.468Z,20.77
2018-09-14T09:28:35.016Z,20.60
2018-09-14T09:30:10.523Z,20.67
2018-09-14T09:31:46.090Z,21.04
2018-09-14T09:33:21.627Z,20.96
2018-09-14T09:34:57.220Z,20.59
2018-09-14T09:36:32.767Z,20.90
2018-09-14T09:38:08.960Z,20.83
2018-09-14T09:39:44.661Z,20.89
2018-09-14T09:41:20.185Z,20.91
2018-09-14T09:42:55.681Z,20.89
2018-09-14T09:44:31.256Z,20.83
2018-09-14T09:46:06.742Z,21.10
2018-09-14T09:47:42.313Z,20.96
2018-09-14T09:49:18.455Z,21.00
2018-09-14T09:50:54.053Z,20.83
2018-09-14T09:52:29.570Z,21.12
2018-09-14T09:54:05.178Z,21.07
2018-09-14T09:55:40.750Z,21.24
2018-09-14T09:57:16.356Z,21.00
2018-09-14T09:58:51.907Z,21.22
2018-09-14T10:00:32.770Z,21.39
2018-09-14T10:02:13.719Z,21.17
2018-09-14T10:03:54.682Z,21.65
2018-09-14T10:05:35.690Z,22.08
2018-09-14T10:07:11.533Z,22.08
2018-09-14T10:08:47.096Z,22.04
2018-09-14T10:10:22.777Z,22.23
2018-09-14T10:11:58.271Z,22.49
2018-09-14T10:13:34.092Z,22.58
2018-09-14T10:15:09.757Z,22.82
2018-09-14T10:16:45.218Z,22.43
2018-09-14T10:18:20.752Z,22.19
2018-09-14T10:19:56.352Z,21.84
2018-09-14T10:21:32.520Z,22.40
2018-09-14T10:23:08.091Z,22.76
2018-09-14T10:24:43.851Z,23.03
2018-09-14T10:26:19.409Z,23.17
2018-09-14T10:27:55.042Z,23.37
2018-09-14T10:29:30.632Z,23.79
2018-09-14T10:31:06.252Z,23.95
2018-09-14T10:32:41.893Z,23.85
2018-09-14T10:34:17.517Z,23.36
2018-09-14T10:35:53.031Z,23.99
2018-09-14T10:37:28.594Z,24.39
2018-09-14T10:39:06.345Z,23.88
2018-09-14T10:40:41.904Z,24.22
2018-09-14T10:42:17.369Z,24.61
2018-09-14T10:43:52.899Z,24.45
2018-09-14T10:45:28.502Z,23.33
2018-09-14T10:47:04.044Z,22.82
2018-09-14T10:48:39.613Z,23.00
2018-09-14T10:50:15.122Z,22.78
2018-09-14T10:51:50.672Z,22.88
2018-09-14T10:53:26.227Z,22.74
2018-09-14T10:55:01.764Z,22.94
2018-09-14T10:56:37.278Z,23.02
2018-09-14T10:58:12.867Z,22.97
2018-09-14T10:59:48.399Z,22.59
2018-09-14T11:01:23.890Z,22.95
2018-09-14T11:02:59.445Z,22.79
2018-09-14T11:04:35.007Z,22.92
2018-09-14T11:06:10.549Z,23.06
2018-09-14T11:07:46.117Z,22.83
2018-09-14T11:09:21.653Z,23.13
2018-09-14T11:10:57.165Z,23.23
2018-09-14T11:12:32.703Z,23.21
2018-09-14T11:14:08.395Z,22.97
2018-09-14T11:15:43.901Z,23.10
2018-09-14T11:17:19.455Z,23.19
2018-09-14T11:18:55.121Z,23.22
2018-09-14T11:20:30.976Z,23.34
2018-09-14T11:22:06.501Z,23.43
2018-09-14T11:23:46.334Z,23.13
2018-09-14T11:25:22.097Z,22.76
2018-09-14T11:26:57.611Z,22.81
2018-09-14T11:28:33.235Z,23.27
2018-09-14T11:30:09.455Z,23.71
2018-09-14T11:31:44.992Z,24.10
2018-09-14T11:33:20.604Z,23.88
2018-09-14T11:34:56.819Z,24.25
2018-09-14T11:36:32.444Z,24.68
2018-09-14T11:38:08.737Z,24.69
2018-09-14T11:39:44.619Z,23.91
2018-09-14T11:41:20.432Z,23.68
2018-09-14T11:42:56.045Z,23.45
2018-09-14T11:44:31.669Z,23.41
2018-09-14T11:46:07.216Z,23.59
2018-09-14T11:47:42.724Z,23.61
2018-09-14T11:49:18.261Z,23.46
2018-09-14T11:50:53.816Z,23.59
2018-09-14T11:52:29.365Z,23.75
2018-09-14T11:54:06.553Z,23.84
2018-09-14T11:55:42.028Z,23.91
2018-09-14T11:57:17.690Z,24.18
2018-09-14T11:58:53.271Z,24.15
2018-09-14T12:00:28.837Z,24.35
2018-09-14T12:02:04.361Z,24.26
2018-09-14T12:03:39.965Z,24.18
2018-09-14T12:05:15.489Z,23.67
2018-09-14T12:06:51.112Z,23.28
2018-09-14T12:08:26.615Z,22.88
2018-09-14T12:10:02.147Z,22.69
2018-09-14T12:11:37.851Z,22.62
2018-09-14T12:13:13.549Z,22.47
2018-09-14T12:14:49.134Z,22.32
2018-09-14T12:16:24.773Z,22.56
2018-09-14T12:18:00.308Z,22.59
2018-09-14T12:19:35.876Z,22.70
2018-09-14T12:21:11.407Z,22.93
2018-09-14T12:22:46.954Z,22.88
2018-09-14T12:24:22.485Z,22.99
2018-09-14T12:25:58.023Z,22.92
2018-09-14T12:27:33.541Z,22.95
2018-09-14T12:29:09.080Z,23.26
2018-09-14T12:30:44.621Z,23.21
2018-09-14T12:32:20.161Z,23.49
2018-09-14T12:33:55.861Z,23.78
2018-09-14T12:35:31.795Z,23.57
2018-09-14T12:37:07.381Z,23.64
2018-09-14T12:38:42.965Z,23.77
2018-09-14T12:40:18.630Z,23.81
2018-09-14T12:41:54.220Z,23.67
2018-09-14T12:43:29.743Z,23.48
2018-09-14T12:45:05.422Z,23.50
2018-09-14T12:46:40.936Z,23.51
2018-09-14T12:48:16.483Z,23.89
2018-09-14T12:49:51.982Z,24.24
2018-09-14T12:51:27.615Z,24.53
2018-09-14T12:53:03.149Z,24.60
2018-09-14T12:54:38.740Z,24.53
2018-09-14T12:56:14.322Z,24.59
2018-09-14T12:57:50.185Z,24.87
2018-09-14T12:59:25.768Z,24.42
2018-09-14T13:01:01.321Z,24.91
2018-09-14T13:02:36.919Z,25.13
2018-09-14T13:04:12.440Z,24.88
2018-09-14T13:05:48.149Z,24.97
2018-09-14T13:07:23.976Z,25.56
2018-09-14T13:08:59.504Z,26.06
2018-09-14T13:10:35.020Z,26.03
2018-09-14T13:12:10.597Z,25.77
2018-09-14T13:13:47.407Z,25.36
2018-09-14T13:15:23.101Z,25.38
2018-09-14T13:17:02.447Z,24.42
2018-09-14T13:18:41.068Z,24.39
2018-09-14T13:20:19.799Z,24.65
2018-09-14T13:21:56.653Z,24.82
2018-09-14T13:23:33.524Z,25.01
2018-09-14T13:25:09.139Z,25.12
2018-09-14T13:26:44.694Z,24.91
2018-09-14T13:28:20.235Z,24.42
2018-09-14T13:29:55.815Z,24.80
2018-09-14T13:31:31.334Z,24.48
2018-09-14T13:33:06.848Z,24.52
2018-09-14T13:34:42.904Z,24.82
2018-09-14T13:36:18.589Z,24.71
2018-09-14T13:37:54.700Z,24.65
2018-09-14T13:39:30.221Z,25.15
2018-09-14T13:41:05.846Z,24.86
2018-09-14T13:42:41.327Z,24.89
2018-09-14T13:44:16.913Z,25.20
2018-09-14T13:45:52.425Z,25.16
2018-09-14T13:47:27.991Z,24.93
2018-09-14T13:49:03.484Z,25.06
2018-09-14T13:50:39.146Z,24.88
2018-09-14T13:52:14.714Z,24.48
2018-09-14T13:53:50.247Z,24.20
2018-09-14T13:55:25.953Z,24.20
2018-09-14T13:57:01.447Z,24.74
2018-09-14T13:58:36.935Z,24.74
2018-09-14T14:00:12.471Z,24.93
2018-09-14T14:01:48.051Z,24.82
2018-09-14T14:03:24.397Z,24.72
2018-09-14T14:05:00.166Z,24.70
2018-09-14T14:06:35.671Z,24.82
2018-09-14T14:08:11.185Z,25.00
2018-09-14T14:09:46.791Z,25.29
2018-09-14T14:11:22.691Z,25.38
2018-09-14T14:12:58.218Z,25.12
2018-09-14T14:14:33.754Z,25.00
2018-09-14T14:16:10.223Z,25.03
2018-09-14T14:17:45.877Z,24.93
2018-09-14T14:19:21.429Z,24.91
2018-09-14T14:20:57.118Z,24.99
2018-09-14T14:22:34.940Z,24.97
2018-09-14T14:24:10.428Z,24.96
2018-09-14T14:25:47.807Z,24.80
2018-09-14T14:27:23.420Z,24.72
2018-09-14T14:28:58.920Z,24.86
2018-09-14T14:30:35.633Z,24.73
2018-09-14T14:32:14.538Z,24.60
2018-09-14T14:33:50.501Z,24.82
2018-09-14T14:35:27.504Z,24.88
2018-09-14T14:37:03.467Z,24.77
2018-09-14T14:38:39.364Z,24.66
2018-09-14T14:40:15.158Z,24.78
2018-09-14T14:41:50.669Z,24.77
2018-09-14T14:43:26.333Z,24.84
2018-09-14T14:45:08.605Z,24.88
2018-09-14T14:46:44.086Z,24.75
2018-09-14T14:48:19.670Z,24.75
2018-09-14T14:49:55.204Z,24.51
2018-09-14T14:51:30.918Z,24.73
2018-09-14T14:53:06.399Z,24.78
2018-09-14T14:54:42.378Z,24.84
2018-09-14T14:56:17.940Z,24.99
2018-09-14T14:57:53.806Z,24.96
2018-09-14T14:59:29.343Z,25.13
2018-09-14T15:01:05.217Z,24.44
2018-09-14T15:02:40.774Z,24.98
2018-09-14T15:04:18.029Z,24.85
2018-09-14T15:05:54.501Z,24.72
2018-09-14T15:07:31.148Z,24.79
2018-09-14T15:09:08.500Z,24.54
2018-09-14T15:10:44.003Z,24.29
2018-09-14T15:12:19.509Z,24.28
2018-09-14T15:13:54.992Z,24.18
2018-09-14T15:15:31.559Z,24.34
2018-09-14T15:17:07.132Z,24.55
2018-09-14T15:18:42.685Z,24.67
2018-09-14T15:20:18.203Z,24.86
2018-09-14T15:21:53.867Z,25.09
2018-09-14T15:23:29.356Z,25.05
2018-09-14T15:25:04.857Z,24.84
2018-09-14T15:26:40.326Z,24.62
2018-09-14T15:28:17.492Z,24.70
2018-09-14T15:29:52.952Z,24.88
2018-09-14T15:31:28.807Z,24.71
2018-09-14T15:33:05.107Z,24.65
2018-09-14T15:34:40.653Z,24.63
2018-09-14T15:36:17.664Z,24.67
2018-09-14T15:37:53.239Z,24.56
2018-09-14T15:39:28.797Z,24.68
2018-09-14T15:41:04.257Z,24.72
2018-09-14T15:42:39.761Z,24.49
2018-09-14T15:44:15.237Z,24.22
2018-09-14T15:45:50.947Z,24.20
2018-09-14T15:47:26.492Z,24.43
2018-09-14T15:49:01.991Z,24.10
2018-09-14T15:50:37.481Z,24.01
2018-09-14T15:52:13.125Z,24.10
2018-09-14T15:53:48.724Z,24.42
2018-09-14T15:55:24.257Z,24.51
2018-09-14T15:56:59.724Z,24.71
2018-09-14T15:58:35.241Z,24.54
2018-09-14T16:00:10.807Z,24.38
2018-09-14T16:01:46.321Z,24.45
2018-09-14T16:03:21.861Z,24.41
2018-09-14T16:04:57.335Z,24.15
2018-09-14T16:06:32.844Z,23.98
2018-09-14T16:08:08.348Z,24.19
2018-09-14T16:09:43.866Z,24.12
2018-09-14T16:11:19.392Z,24.18
2018-09-14T16:12:54.947Z,24.30
2018-09-14T16:14:30.441Z,24.08
2018-09-14T16:16:05.923Z,23.94
2018-09-14T16:17:41.444Z,23.76
2018-09-14T16:19:17.590Z,23.75
2018-09-14T16:20:53.096Z,23.74
2018-09-14T16:22:28.663Z,23.43
2018-09-14T16:24:04.157Z,23.47
2018-09-14T16:25:39.667Z,23.43
2018-09-14T16:27:15.190Z,23.29
2018-09-14T16:28:50.925Z,23.46
2018-09-14T16:30:26.731Z,23.47
2018-09-14T16:32:02.221Z,23.32
2018-09-14T16:33:37.811Z,23.39
2018-09-14T16:35:13.511Z,23.24
2018-09-14T16:36:49.036Z,23.02
2018-09-14T16:38:24.682Z,23.15
2018-09-14T16:40:00.381Z,22.81
2018-09-14T16:41:36.687Z,22.56
2018-09-14T16:43:12.211Z,22.65
2018-09-14T16:46:21.992Z,22.48
2018-09-14T16:47:57.616Z,22.31
2018-09-14T16:49:33.110Z,22.27
2018-09-14T16:51:08.716Z,22.17
2018-09-14T16:52:44.418Z,22.00
2018-09-14T16:54:20.236Z,21.90
2018-09-14T16:55:56.029Z,21.71
2018-09-14T16:57:32.240Z,21.69
2018-09-14T16:59:07.797Z,21.71
2018-09-14T17:00:43.261Z,21.59
2018-09-14T17:02:18.830Z,21.44
2018-09-14T17:03:54.358Z,21.33
2018-09-14T17:05:30.868Z,21.32
2018-09-14T17:07:11.225Z,21.35
2018-09-14T17:08:46.743Z,21.27
2018-09-14T17:10:22.324Z,21.26
2018-09-14T17:11:57.829Z,21.10
2018-09-14T17:13:33.436Z,21.13
2018-09-14T17:15:09.783Z,21.05
2018-09-14T17:16:46.135Z,21.08
2018-09-14T17:18:21.682Z,21.10
2018-09-14T17:19:57.201Z,21.01
2018-09-14T17:21:32.830Z,21.01
2018-09-14T17:23:08.267Z,20.90
2018-09-14T17:24:43.844Z,20.88
2018-09-14T17:26:19.420Z,20.57
2018-09-14T17:27:55.014Z,20.52
2018-09-14T17:29:30.701Z,20.44
2018-09-14T17:31:06.259Z,20.43
2018-09-14T17:32:41.939Z,20.34
2018-09-14T17:34:17.627Z,20.35
2018-09-14T17:35:53.154Z,20.31
2018-09-14T17:37:35.148Z,20.28
2018-09-14T17:39:12.240Z,20.34
2018-09-14T17:40:47.845Z,20.21
2018-09-14T17:42:24.578Z,20.41
2018-09-14T17:44:02.146Z,20.59
2018-09-14T17:45:35.703Z,20.78
2018-09-14T17:47:11.251Z,20.71
2018-09-14T17:48:46.801Z,20.79
2018-09-14T17:50:22.323Z,20.74
2018-09-14T17:51:57.905Z,20.58
2018-09-14T17:53:33.645Z,20.54
2018-09-14T17:55:09.146Z,20.41
2018-09-14T17:56:44.804Z,20.32
2018-09-14T17:58:20.341Z,20.34
2018-09-14T17:59:55.941Z,20.39
2018-09-14T18:01:31.741Z,20.35
2018-09-14T18:03:07.243Z,20.28
2018-09-14T18:04:43.673Z,20.00
2018-09-14T18:06:19.253Z,20.06
2018-09-14T18:07:54.785Z,20.10
2018-09-14T18:09:30.375Z,20.18
2018-09-14T18:11:07.021Z,20.37
2018-09-14T18:12:42.708Z,20.11
2018-09-14T18:14:18.275Z,20.12
2018-09-14T18:15:55.550Z,20.31
2018-09-14T18:17:32.255Z,20.20
2018-09-14T18:19:08.651Z,20.40
2018-09-14T18:20:45.128Z,20.39
2018-09-14T18:22:27.603Z,20.28
2018-09-14T18:24:06.381Z,20.29
2018-09-14T18:25:43.964Z,20.28
2018-09-14T18:27:19.653Z,20.41
2018-09-14T18:28:58.074Z,20.27
2018-09-14T18:30:33.664Z,20.07
2018-09-14T18:32:09.299Z,20.21
2018-09-14T18:33:45.836Z,20.21
2018-09-14T18:35:21.955Z,20.02
2018-09-14T18:36:57.561Z,20.09
2018-09-14T18:38:34.437Z,20.13
2018-09-14T18:40:11.795Z,20.09
2018-09-14T18:41:49.753Z,20.11
2018-09-14T18:43:25.333Z,20.10
2018-09-14T18:45:01.379Z,20.03
2018-09-14T18:46:38.077Z,20.06
2018-09-14T18:48:13.686Z,20.02
2018-09-14T18:49:50.903Z,19.94
2018-09-14T18:51:27.757Z,19.96
2018-09-14T18:53:03.320Z,19.88
2018-09-14T18:54:39.182Z,19.76
2018-09-14T18:56:15.957Z,19.71
2018-09-14T18:57:53.301Z,19.78
2018-09-14T18:59:29.119Z,19.76
2018-09-14T19:01:04.664Z,19.92
2018-09-14T19:02:40.288Z,19.79
2018-09-14T19:04:17.061Z,19.82
2018-09-14T19:05:52.741Z,19.92
2018-09-14T19:07:28.283Z,20.05
2018-09-14T19:09:05.022Z,20.01
2018-09-14T19:10:40.568Z,20.09
2018-09-14T19:12:16.201Z,20.02
2018-09-14T19:13:51.813Z,20.15
2018-09-14T19:15:28.429Z,20.27
2018-09-14T19:17:04.025Z,20.30
2018-09-14T19:18:40.269Z,20.09
2018-09-14T19:20:15.907Z,19.72
2018-09-14T19:21:51.446Z,19.72
2018-09-14T19:23:27.029Z,19.68
2018-09-14T19:25:02.597Z,19.46
2018-09-14T19:26:39.203Z,19.56
2018-09-14T19:28:14.851Z,19.67
2018-09-14T19:29:52.273Z,19.69
2018-09-14T19:31:30.855Z,19.58
2018-09-14T19:33:06.768Z,19.68
2018-09-14T19:34:43.710Z,19.69
2018-09-14T19:36:19.454Z,19.57
2018-09-14T19:37:55.230Z,19.65
2018-09-14T19:39:30.923Z,19.86
2018-09-14T19:41:07.403Z,19.83
2018-09-14T19:42:44.540Z,19.79
2018-09-14T19:44:20.104Z,19.72
2018-09-14T19:45:55.993Z,19.66
2018-09-14T19:47:32.539Z,19.60
2018-09-14T19:49:08.774Z,19.60
2018-09-14T19:50:44.406Z,19.57
2018-09-14T19:52:19.997Z,19.61
2018-09-14T19:53:55.735Z,19.64
2018-09-14T19:55:31.462Z,19.72
2018-09-14T19:57:07.161Z,19.80
2018-09-14T19:58:42.727Z,19.85
2018-09-14T20:00:18.398Z,19.84
2018-09-14T20:01:54.122Z,19.83
2018-09-14T20:03:29.681Z,19.87
2018-09-14T20:05:05.806Z,19.87
2018-09-14T20:06:41.405Z,19.81
2018-09-14T20:08:17.518Z,19.71
2018-09-14T20:09:53.373Z,19.71
2018-09-14T20:11:29.046Z,19.81
2018-09-14T20:13:05.320Z,19.90
2018-09-14T20:14:42.103Z,19.86
2018-09-14T20:16:17.740Z,19.91
2018-09-14T20:17:53.465Z,20.05
2018-09-14T20:19:28.966Z,20.05
2018-09-14T20:21:04.576Z,19.93
2018-09-14T20:22:40.111Z,19.98
2018-09-14T20:24:15.722Z,20.05
2018-09-14T20:25:51.483Z,20.06
2018-09-14T20:27:27.045Z,20.08
2018-09-14T20:29:03.587Z,20.06
2018-09-14T20:30:39.485Z,20.11
2018-09-14T20:32:15.306Z,20.29
2018-09-14T20:33:52.103Z,20.17
2018-09-14T20:35:28.175Z,19.77
2018-09-14T20:37:04.808Z,19.77
2018-09-14T20:38:40.759Z,19.73